createdAt,value
2023-08-25T00:00:06.737Z,93.48
2023-08-25T00:02:40.358Z,93.10
2023-08-25T00:05:10.678Z,92.50
2023-08-25T00:07:38.415Z,91.97
2023-08-25T00:10:07.840Z,91.48
2023-08-25T00:12:36.866Z,91.07
2023-08-25T00:15:05.986Z,90.36
2023-08-25T00:17:34.067Z,90.27
2023-08-25T00:20:02.368Z,89.67
2023-08-25T00:22:31.418Z,89.12
2023-08-25T00:24:59.104Z,88.67
2023-08-25T00:27:26.720Z,88.08
2023-08-25T00:29:55.114Z,87.66
2023-08-25T00:32:22.926Z,87.61
2023-08-25T00:34:50.664Z,87.39
2023-08-25T00:37:18.318Z,87.19
2023-08-25T00:39:47.964Z,86.93
2023-08-25T00:42:15.627Z,86.70
2023-08-25T00:44:45.573Z,86.13
2023-08-25T00:47:13.673Z,85.96
2023-08-25T00:49:43.562Z,85.66
2023-08-25T00:52:12.776Z,85.24
2023-08-25T00:54:41.641Z,84.70
2023-08-25T00:57:10.773Z,84.37
2023-08-25T00:59:40.697Z,84.51
2023-08-25T01:02:09.397Z,84.01
2023-08-25T01:04:37.149Z,83.22
2023-08-25T01:07:04.931Z,83.12
2023-08-25T01:09:33.661Z,82.24
2023-08-25T01:12:05.493Z,82.02
2023-08-25T01:14:44.483Z,80.87
2023-08-25T01:17:17.104Z,81.08
2023-08-25T01:19:58.188Z,80.32
2023-08-25T01:22:35.066Z,80.59
2023-08-25T01:25:24.753Z,81.02
2023-08-25T01:27:53.702Z,81.48
2023-08-25T01:30:23.956Z,81.71
2023-08-25T01:32:52.472Z,82.22
2023-08-25T01:35:25.209Z,82.54
2023-08-25T01:37:59.792Z,82.96
2023-08-25T01:40:39.527Z,83.48
2023-08-25T01:43:11.425Z,84.08
2023-08-25T01:45:39.239Z,84.61
2023-08-25T01:48:08.877Z,86.15
2023-08-25T01:50:37.275Z,86.37
2023-08-25T01:53:05.290Z,87.36
2023-08-25T01:55:35.045Z,88.38
2023-08-25T01:58:04.239Z,88.57
2023-08-25T02:00:31.987Z,89.44
2023-08-25T02:03:01.107Z,90.10
2023-08-25T02:05:29.830Z,90.64
2023-08-25T02:07:57.614Z,90.96
2023-08-25T02:10:25.302Z,91.43
2023-08-25T02:12:54.459Z,91.70
2023-08-25T02:15:22.154Z,91.93
2023-08-25T02:17:49.986Z,92.27
2023-08-25T02:20:17.901Z,92.80
2023-08-25T02:22:45.556Z,93.15
2023-08-25T02:25:13.231Z,93.48
2023-08-25T02:27:41.118Z,93.83
2023-08-25T02:30:11.760Z,94.18
2023-08-25T02:32:39.898Z,94.39
2023-08-25T02:35:09.487Z,94.94
2023-08-25T02:37:37.292Z,95.16
2023-08-25T02:40:05.674Z,95.72
2023-08-25T02:42:33.376Z,95.70
2023-08-25T02:45:01.034Z,95.58
2023-08-25T02:47:31.346Z,95.75
2023-08-25T02:49:59.250Z,96.43
2023-08-25T02:52:27.099Z,96.58
2023-08-25T02:54:54.966Z,97.10
2023-08-25T02:57:23.941Z,97.57
2023-08-25T02:59:51.607Z,97.63
2023-08-25T03:02:19.406Z,97.89
2023-08-25T03:04:48.473Z,98.20
2023-08-25T03:07:16.124Z,98.46
2023-08-25T03:09:43.855Z,99.12
2023-08-25T03:12:11.717Z,99.22
2023-08-25T03:14:39.817Z,99.58
2023-08-25T03:17:07.541Z,99.42
2023-08-25T03:19:35.281Z,99.47
2023-08-25T03:22:04.387Z,99.45
2023-08-25T03:24:34.484Z,99.79
2023-08-25T03:27:02.245Z,100.00
2023-08-25T03:29:30.020Z,100.00
2023-08-25T03:31:57.764Z,100.00
2023-08-25T03:34:25.547Z,100.00
2023-08-25T03:36:53.270Z,100.00
2023-08-25T03:39:22.750Z,100.00
2023-08-25T03:41:50.504Z,100.00
2023-08-25T03:44:18.477Z,100.00
2023-08-25T03:46:46.999Z,100.00
2023-08-25T03:49:14.744Z,100.00
2023-08-25T03:51:43.206Z,100.00
2023-08-25T03:54:12.576Z,100.00
2023-08-25T03:56:41.709Z,100.00
2023-08-25T03:59:12.476Z,100.00
2023-08-25T04:01:40.245Z,100.00
2023-08-25T04:04:08.186Z,100.00
2023-08-25T04:06:35.974Z,100.00
2023-08-25T04:09:03.828Z,100.00
2023-08-25T04:11:31.568Z,100.00
2023-08-25T04:14:00.595Z,100.00
2023-08-25T04:16:28.622Z,100.00
2023-08-25T04:18:56.518Z,100.00
2023-08-25T04:21:24.245Z,100.00
2023-08-25T04:23:51.952Z,100.00
2023-08-25T04:26:19.851Z,100.00
2023-08-25T04:28:47.514Z,100.00
2023-08-25T04:31:16.992Z,100.00
2023-08-25T04:33:50.386Z,100.00
2023-08-25T04:36:18.169Z,100.00
2023-08-25T04:38:45.856Z,100.00
2023-08-25T04:41:13.793Z,100.00
2023-08-25T04:43:41.514Z,100.00
2023-08-25T04:46:09.424Z,100.00
2023-08-25T04:48:39.272Z,100.00
2023-08-25T04:51:09.732Z,100.00
2023-08-25T04:53:37.444Z,100.00
2023-08-25T04:56:05.629Z,100.00
2023-08-25T04:58:33.656Z,100.00
2023-08-25T05:01:01.423Z,100.00
2023-08-25T05:03:29.351Z,100.00
2023-08-25T05:05:58.521Z,100.00
2023-08-25T05:08:27.405Z,100.00
2023-08-25T05:10:55.829Z,100.00
2023-08-25T05:13:26.429Z,100.00
2023-08-25T05:15:55.761Z,100.00
2023-08-25T05:18:42.251Z,100.00
2023-08-25T05:21:13.577Z,100.00
2023-08-25T05:23:47.338Z,100.00
2023-08-25T05:26:15.416Z,100.00
2023-08-25T05:28:46.491Z,100.00
2023-08-25T05:31:14.241Z,100.00
2023-08-25T05:34:04.847Z,100.00
2023-08-25T05:36:37.157Z,100.00
2023-08-25T05:39:06.860Z,100.00
2023-08-25T05:41:35.010Z,100.00
2023-08-25T05:44:03.286Z,100.00
2023-08-25T05:46:31.359Z,100.00
2023-08-25T05:48:59.772Z,100.00
2023-08-25T05:51:28.841Z,100.00
2023-08-25T05:53:58.144Z,99.41
2023-08-25T05:56:27.017Z,99.11
2023-08-25T05:58:54.742Z,98.55
2023-08-25T06:01:22.487Z,98.17
2023-08-25T06:03:50.246Z,97.84
2023-08-25T06:06:18.101Z,97.14
2023-08-25T06:08:45.832Z,96.57
2023-08-25T06:11:15.186Z,96.46
2023-08-25T06:13:42.969Z,95.82
2023-08-25T06:16:11.168Z,95.57
2023-08-25T06:18:41.281Z,94.99
2023-08-25T06:21:09.025Z,94.87
2023-08-25T06:23:36.709Z,94.73
2023-08-25T06:26:04.354Z,94.38
2023-08-25T06:28:34.498Z,93.38
2023-08-25T06:31:02.167Z,93.06
2023-08-25T06:33:31.110Z,92.94
2023-08-25T06:35:59.189Z,92.88
2023-08-25T06:38:26.884Z,92.44
2023-08-25T06:40:56.051Z,91.71
2023-08-25T06:43:23.842Z,91.21
2023-08-25T06:45:52.930Z,90.65
2023-08-25T06:48:20.819Z,90.52
2023-08-25T06:50:48.497Z,90.03
2023-08-25T06:53:16.517Z,89.77
2023-08-25T06:55:44.465Z,89.48
2023-08-25T06:58:12.348Z,88.91
2023-08-25T07:00:40.131Z,88.41
2023-08-25T07:03:09.310Z,88.58
2023-08-25T07:05:39.191Z,87.92
2023-08-25T07:08:07.461Z,87.74
2023-08-25T07:10:35.725Z,87.23
2023-08-25T07:13:03.914Z,86.46
2023-08-25T07:15:31.665Z,85.86
2023-08-25T07:18:04.899Z,86.15
2023-08-25T07:20:34.162Z,86.22
2023-08-25T07:23:01.799Z,85.80
2023-08-25T07:25:29.868Z,85.45
2023-08-25T07:27:57.506Z,85.19
2023-08-25T07:30:25.188Z,84.84
2023-08-25T07:32:52.886Z,84.54
2023-08-25T07:35:20.991Z,84.27
2023-08-25T07:37:52.844Z,83.94
2023-08-25T07:40:22.705Z,83.34
2023-08-25T07:42:50.311Z,82.80
2023-08-25T07:45:20.202Z,81.54
2023-08-25T07:47:48.065Z,80.76
2023-08-25T07:50:15.813Z,79.11
2023-08-25T07:52:43.671Z,78.61
2023-08-25T07:55:13.263Z,78.37
2023-08-25T07:57:41.054Z,76.98
2023-08-25T08:00:13.744Z,77.21
2023-08-25T08:02:41.612Z,76.76
2023-08-25T08:05:09.433Z,76.17
2023-08-25T08:07:37.208Z,74.80
2023-08-25T08:10:05.709Z,73.54
2023-08-25T08:12:34.968Z,72.47
2023-08-25T08:15:02.780Z,72.33
2023-08-25T08:17:30.630Z,70.71
2023-08-25T08:19:58.310Z,70.15
2023-08-25T08:22:27.229Z,69.17
2023-08-25T08:24:55.295Z,68.21
2023-08-25T08:27:24.560Z,68.71
2023-08-25T08:29:53.851Z,68.76
2023-08-25T08:32:22.580Z,68.38
2023-08-25T08:34:50.462Z,68.48
2023-08-25T08:37:18.369Z,68.55
2023-08-25T08:39:46.456Z,67.63
2023-08-25T08:42:15.483Z,67.17
2023-08-25T08:44:47.781Z,66.28
2023-08-25T08:47:17.716Z,67.43
2023-08-25T08:49:47.076Z,66.97
2023-08-25T08:52:14.824Z,67.26
2023-08-25T08:54:43.527Z,67.50
2023-08-25T08:57:14.070Z,67.98
2023-08-25T08:59:42.293Z,68.61
2023-08-25T09:02:12.125Z,69.38
2023-08-25T09:04:43.015Z,71.33
2023-08-25T09:07:13.860Z,73.01
2023-08-25T09:09:42.321Z,74.35
2023-08-25T09:12:10.473Z,75.87
2023-08-25T09:14:38.142Z,77.11
2023-08-25T09:17:07.321Z,78.52
2023-08-25T09:19:35.738Z,79.87
2023-08-25T09:22:04.803Z,80.39
2023-08-25T09:24:34.377Z,81.02
2023-08-25T09:27:02.166Z,81.31
2023-08-25T09:29:42.061Z,82.90
2023-08-25T09:32:15.256Z,82.47
2023-08-25T09:34:43.810Z,83.16
2023-08-25T09:37:12.800Z,83.51
2023-08-25T09:39:44.531Z,84.44
2023-08-25T09:42:12.809Z,84.56
2023-08-25T09:44:43.115Z,84.66
2023-08-25T09:47:12.090Z,85.42
2023-08-25T09:49:40.662Z,86.40
2023-08-25T09:52:08.924Z,86.55
2023-08-25T09:54:37.980Z,87.48
2023-08-25T09:57:06.030Z,87.86
2023-08-25T09:59:33.723Z,88.73
2023-08-25T10:02:02.128Z,89.10
2023-08-25T10:04:30.006Z,89.94
2023-08-25T10:06:57.829Z,90.24
2023-08-25T10:09:26.130Z,91.00
2023-08-25T10:11:57.438Z,90.98
2023-08-25T10:14:27.930Z,91.46
2023-08-25T10:16:55.658Z,91.62
2023-08-25T10:19:25.533Z,92.24
2023-08-25T10:21:54.282Z,93.16
2023-08-25T10:24:23.547Z,92.96
2023-08-25T10:26:53.011Z,93.52
2023-08-25T10:29:25.392Z,94.28
2023-08-25T10:31:59.261Z,93.53
2023-08-25T10:34:35.306Z,94.62
2023-08-25T10:37:07.390Z,94.43
2023-08-25T10:39:49.317Z,94.99
2023-08-25T10:42:21.467Z,94.93
2023-08-25T10:44:55.217Z,95.13
2023-08-25T10:47:23.686Z,95.59
2023-08-25T10:49:55.190Z,96.03
2023-08-25T10:52:23.709Z,96.04
2023-08-25T10:54:53.357Z,96.13
2023-08-25T10:57:22.351Z,95.52
2023-08-25T10:59:58.847Z,95.22
2023-08-25T11:02:36.588Z,94.91
2023-08-25T11:05:45.975Z,94.44
2023-08-25T11:08:30.408Z,93.94
2023-08-25T11:11:12.095Z,94.43
2023-08-25T11:13:40.914Z,93.89
2023-08-25T11:16:12.123Z,94.03
2023-08-25T11:18:41.519Z,94.27
2023-08-25T11:21:09.373Z,94.66
2023-08-25T11:23:39.180Z,95.18
2023-08-25T11:26:08.998Z,95.00
2023-08-25T11:28:37.000Z,95.21
2023-08-25T11:31:05.723Z,94.52
2023-08-25T11:33:35.987Z,94.90
2023-08-25T11:36:05.662Z,94.88
2023-08-25T11:38:33.831Z,95.15
2023-08-25T11:41:01.715Z,94.80
2023-08-25T11:43:30.845Z,94.46
2023-08-25T11:45:59.258Z,94.41
2023-08-25T11:48:27.185Z,94.48
2023-08-25T11:50:56.490Z,94.20
2023-08-25T11:53:24.260Z,94.31
2023-08-25T11:56:05.774Z,94.21
2023-08-25T11:58:35.076Z,94.09
2023-08-25T12:01:06.099Z,93.76
2023-08-25T12:03:33.922Z,93.79
2023-08-25T12:06:06.468Z,93.08
2023-08-25T12:08:34.877Z,92.41
2023-08-25T12:11:03.260Z,91.99
2023-08-25T12:13:33.042Z,92.36
2023-08-25T12:16:00.754Z,92.41
2023-08-25T12:18:35.821Z,92.93
2023-08-25T12:21:07.272Z,93.44
2023-08-25T12:23:36.834Z,93.07
2023-08-25T12:26:05.749Z,92.66
2023-08-25T12:28:34.082Z,92.35
2023-08-25T12:31:02.628Z,91.81
2023-08-25T12:33:30.734Z,91.21
2023-08-25T12:35:59.753Z,90.66
2023-08-25T12:38:31.028Z,90.17
2023-08-25T12:41:02.339Z,89.72
2023-08-25T12:43:29.317Z,89.36
2023-08-25T12:45:57.715Z,87.68
2023-08-25T12:48:25.682Z,87.21
2023-08-25T12:50:53.317Z,86.22
2023-08-25T12:53:21.307Z,85.58
2023-08-25T12:55:50.406Z,84.79
2023-08-25T12:58:18.110Z,84.08
2023-08-25T13:00:45.881Z,82.65
2023-08-25T13:03:13.949Z,82.40
2023-08-25T13:05:42.548Z,80.59
2023-08-25T13:08:10.466Z,81.06
2023-08-25T13:10:38.167Z,81.64
2023-08-25T13:13:07.673Z,81.12
2023-08-25T13:15:36.239Z,81.82
2023-08-25T13:18:04.532Z,80.66
2023-08-25T13:20:32.224Z,79.71
2023-08-25T13:22:59.898Z,79.30
2023-08-25T13:25:27.570Z,79.12
2023-08-25T13:27:55.518Z,78.15
2023-08-25T13:30:24.791Z,77.45
2023-08-25T13:32:52.682Z,76.66
2023-08-25T13:35:20.372Z,75.40
2023-08-25T13:37:48.053Z,75.18
2023-08-25T13:40:15.701Z,74.84
2023-08-25T13:42:43.374Z,74.51
2023-08-25T13:45:11.904Z,74.27
2023-08-25T13:47:41.476Z,73.25
2023-08-25T13:50:11.315Z,73.78
2023-08-25T13:52:39.190Z,73.43
2023-08-25T13:55:08.216Z,73.73
2023-08-25T13:57:38.870Z,73.48
2023-08-25T14:00:08.304Z,73.31
2023-08-25T14:02:44.649Z,73.34
2023-08-25T14:05:14.033Z,73.25
2023-08-25T14:07:42.135Z,73.71
2023-08-25T14:10:10.805Z,73.50
2023-08-25T14:12:39.612Z,73.87
2023-08-25T14:15:09.178Z,74.00
2023-08-25T14:17:37.345Z,74.27
2023-08-25T14:20:08.035Z,74.18
2023-08-25T14:22:35.739Z,74.26
2023-08-25T14:25:03.552Z,74.03
2023-08-25T14:27:31.383Z,73.68
2023-08-25T14:30:00.979Z,73.76
2023-08-25T14:32:29.111Z,73.65
2023-08-25T14:34:57.185Z,73.44
2023-08-25T14:37:26.245Z,72.96
2023-08-25T14:39:54.448Z,72.82
2023-08-25T14:42:22.399Z,73.81
2023-08-25T14:44:50.123Z,73.31
2023-08-25T14:47:17.902Z,73.78
2023-08-25T14:49:45.770Z,73.98
2023-08-25T14:52:13.592Z,73.97
2023-08-25T14:54:43.304Z,73.72
2023-08-25T14:57:11.154Z,74.23
2023-08-25T14:59:38.875Z,74.42
2023-08-25T15:02:06.568Z,74.80
2023-08-25T15:04:34.440Z,75.40
2023-08-25T15:07:02.114Z,75.26
2023-08-25T15:09:29.849Z,74.45
2023-08-25T15:11:58.966Z,73.02
2023-08-25T15:14:26.770Z,73.19
2023-08-25T15:16:55.079Z,73.49
2023-08-25T15:19:22.860Z,72.98
2023-08-25T15:21:50.530Z,72.24
2023-08-25T15:24:18.563Z,71.67
2023-08-25T15:26:46.663Z,71.07
2023-08-25T15:29:15.730Z,70.31
2023-08-25T15:31:43.471Z,70.61
2023-08-25T15:34:11.532Z,70.41
2023-08-25T15:36:39.351Z,70.03
2023-08-25T15:39:07.242Z,70.83
2023-08-25T15:41:37.647Z,70.82
2023-08-25T15:44:05.906Z,70.93
2023-08-25T15:46:34.994Z,70.21
2023-08-25T15:49:03.149Z,69.67
2023-08-25T15:51:30.923Z,70.98
2023-08-25T15:53:58.597Z,71.36
2023-08-25T15:56:26.270Z,72.21
2023-08-25T15:58:53.942Z,71.91
2023-08-25T16:01:21.640Z,72.62
2023-08-25T16:03:50.723Z,72.00
2023-08-25T16:06:18.524Z,71.76
2023-08-25T16:08:46.254Z,72.22
2023-08-25T16:11:13.922Z,73.16
2023-08-25T16:13:43.085Z,73.40
2023-08-25T16:16:11.241Z,73.40
2023-08-25T16:18:41.451Z,73.72
2023-08-25T16:21:10.913Z,73.80
2023-08-25T16:23:39.687Z,74.24
2023-08-25T16:26:07.571Z,73.86
2023-08-25T16:28:35.323Z,73.98
2023-08-25T16:31:04.854Z,74.22
2023-08-25T16:33:33.583Z,74.19
2023-08-25T16:36:01.583Z,74.17
2023-08-25T16:38:31.404Z,74.06
2023-08-25T16:40:59.160Z,74.53
2023-08-25T16:43:27.018Z,73.68
2023-08-25T16:45:55.351Z,74.33
2023-08-25T16:48:23.461Z,74.83
2023-08-25T16:50:51.884Z,74.80
2023-08-25T16:53:20.282Z,75.50
2023-08-25T16:55:49.358Z,75.86
2023-08-25T16:58:17.110Z,76.63
2023-08-25T17:00:46.999Z,76.94
2023-08-25T17:03:15.408Z,76.89
2023-08-25T17:05:43.146Z,76.71
2023-08-25T17:08:10.910Z,76.91
2023-08-25T17:10:38.857Z,76.63
2023-08-25T17:13:08.219Z,77.17
2023-08-25T17:15:37.525Z,77.34
2023-08-25T17:18:06.438Z,77.59
2023-08-25T17:20:34.543Z,78.48
2023-08-25T17:23:02.431Z,78.16
2023-08-25T17:25:33.746Z,78.51
2023-08-25T17:28:01.446Z,78.72
2023-08-25T17:30:31.012Z,78.98
2023-08-25T17:32:58.962Z,79.46
2023-08-25T17:35:26.802Z,79.67
2023-08-25T17:37:54.506Z,80.07
2023-08-25T17:40:22.181Z,80.41
2023-08-25T17:42:49.852Z,80.51
2023-08-25T17:45:17.736Z,80.59
2023-08-25T17:47:46.842Z,81.46
2023-08-25T17:50:14.613Z,81.84
2023-08-25T17:52:42.334Z,82.89
2023-08-25T17:55:10.416Z,83.37
2023-08-25T17:57:38.820Z,83.88
2023-08-25T18:00:08.308Z,83.64
2023-08-25T18:02:41.069Z,84.34
2023-08-25T18:05:11.036Z,84.38
2023-08-25T18:07:38.754Z,84.91
2023-08-25T18:10:07.640Z,84.59
2023-08-25T18:12:35.395Z,85.21
2023-08-25T18:15:04.557Z,85.55
2023-08-25T18:17:32.475Z,85.63
2023-08-25T18:20:00.498Z,85.84
2023-08-25T18:22:29.881Z,85.72
2023-08-25T18:24:57.552Z,86.16
2023-08-25T18:27:25.589Z,86.20
2023-08-25T18:29:53.300Z,86.25
2023-08-25T18:32:21.818Z,86.85
2023-08-25T18:34:49.797Z,86.62
2023-08-25T18:37:17.614Z,87.07
2023-08-25T18:39:46.944Z,87.22
2023-08-25T18:42:14.634Z,87.54
2023-08-25T18:44:42.295Z,87.26
2023-08-25T18:47:10.035Z,88.05
2023-08-25T18:49:37.851Z,88.18
2023-08-25T18:52:06.515Z,88.15
2023-08-25T18:54:34.143Z,87.67
2023-08-25T18:57:03.316Z,87.92
2023-08-25T18:59:30.978Z,88.28
2023-08-25T19:01:58.758Z,88.76
2023-08-25T19:04:26.450Z,89.09
2023-08-25T19:06:54.456Z,88.92
2023-08-25T19:09:22.992Z,89.07
2023-08-25T19:11:50.734Z,88.81
2023-08-25T19:14:19.747Z,88.97
2023-08-25T19:16:47.419Z,89.24
2023-08-25T19:19:15.070Z,89.86
2023-08-25T19:21:42.783Z,89.98
2023-08-25T19:24:10.462Z,89.99
2023-08-25T19:26:38.156Z,90.25
2023-08-25T19:29:07.404Z,90.81
2023-08-25T19:31:36.580Z,91.29
2023-08-25T19:34:05.499Z,91.69
2023-08-25T19:36:39.301Z,91.65
2023-08-25T19:39:07.802Z,91.62
2023-08-25T19:41:35.507Z,91.89
2023-08-25T19:44:03.465Z,91.83
2023-08-25T19:46:31.207Z,92.66
2023-08-25T19:49:01.189Z,92.75
2023-08-25T19:51:29.150Z,93.29
2023-08-25T19:53:57.179Z,93.63
2023-08-25T19:56:25.185Z,93.82
2023-08-25T19:58:53.576Z,94.03
2023-08-25T20:01:21.371Z,94.55
2023-08-25T20:03:49.337Z,95.14
2023-08-25T20:06:18.652Z,96.93
2023-08-25T20:08:47.788Z,98.97
2023-08-25T20:11:16.036Z,100.00
2023-08-25T20:13:43.786Z,100.00
2023-08-25T20:16:11.787Z,100.00
2023-08-25T20:18:39.447Z,100.00
2023-08-25T20:21:07.729Z,100.00
2023-08-25T20:23:38.666Z,100.00
2023-08-25T20:26:06.982Z,100.00
2023-08-25T20:28:38.863Z,100.00
2023-08-25T20:31:06.725Z,100.00
2023-08-25T20:33:34.942Z,100.00
2023-08-25T20:36:04.447Z,100.00
2023-08-25T20:38:33.289Z,100.00
2023-08-25T20:41:04.559Z,100.00
2023-08-25T20:43:32.337Z,100.00
2023-08-25T20:46:16.418Z,100.00
2023-08-25T20:48:47.890Z,100.00
2023-08-25T20:51:15.986Z,100.00
2023-08-25T20:53:43.915Z,100.00
2023-08-25T20:56:12.980Z,100.00
2023-08-25T20:58:40.858Z,100.00
2023-08-25T21:01:10.026Z,100.00
2023-08-25T21:03:38.323Z,100.00
2023-08-25T21:06:06.854Z,100.00
2023-08-25T21:08:35.407Z,100.00
2023-08-25T21:11:04.713Z,100.00
2023-08-25T21:13:34.673Z,100.00
2023-08-25T21:16:02.863Z,100.00
2023-08-25T21:18:30.614Z,100.00
2023-08-25T21:21:01.025Z,100.00
2023-08-25T21:23:28.961Z,100.00
2023-08-25T21:26:00.364Z,100.00
2023-08-25T21:28:28.934Z,100.00
2023-08-25T21:30:59.994Z,100.00
2023-08-25T21:33:29.143Z,100.00
2023-08-25T21:35:56.853Z,100.00
2023-08-25T21:38:24.622Z,100.00
2023-08-25T21:40:52.251Z,100.00
2023-08-25T21:43:20.012Z,100.00
2023-08-25T21:45:49.081Z,100.00
2023-08-25T21:48:18.223Z,100.00
2023-08-25T21:50:46.532Z,100.00
2023-08-25T21:53:14.233Z,100.00
2023-08-25T21:55:42.051Z,100.00
2023-08-25T21:58:09.873Z,100.00
2023-08-25T22:00:37.696Z,100.00
2023-08-25T22:03:06.293Z,100.00
2023-08-25T22:05:37.742Z,100.00
2023-08-25T22:08:06.229Z,100.00
2023-08-25T22:10:36.409Z,100.00
2023-08-25T22:13:04.415Z,100.00
2023-08-25T22:15:32.363Z,100.00
2023-08-25T22:18:00.789Z,100.00
2023-08-25T22:20:28.811Z,100.00
2023-08-25T22:22:58.058Z,100.00
2023-08-25T22:25:26.060Z,100.00
2023-08-25T22:27:53.760Z,100.00
2023-08-25T22:30:21.458Z,100.00
2023-08-25T22:35:20.014Z,100.00
2023-08-25T22:37:47.657Z,100.00
2023-08-25T22:40:16.741Z,100.00
2023-08-25T22:42:44.378Z,100.00
2023-08-25T22:45:12.154Z,100.00
2023-08-25T22:47:39.927Z,100.00
2023-08-25T22:50:08.411Z,100.00
2023-08-25T22:52:36.078Z,100.00
2023-08-25T22:55:03.825Z,100.00
2023-08-25T22:57:32.827Z,100.00
2023-08-25T23:00:00.540Z,100.00
2023-08-25T23:02:28.260Z,100.00
2023-08-25T23:04:56.036Z,100.00
2023-08-25T23:07:23.738Z,100.00
2023-08-25T23:09:51.479Z,100.00
2023-08-25T23:12:19.139Z,100.00
2023-08-25T23:14:48.157Z,100.00
2023-08-25T23:17:15.833Z,100.00
2023-08-25T23:19:43.660Z,100.00
2023-08-25T23:22:12.895Z,100.00
2023-08-25T23:24:44.813Z,100.00
2023-08-25T23:27:13.444Z,100.00
2023-08-25T23:29:41.640Z,100.00
2023-08-25T23:32:10.918Z,100.00
2023-08-25T23:34:38.592Z,100.00
2023-08-25T23:37:06.306Z,100.00
2023-08-25T23:39:34.019Z,100.00
2023-08-25T23:42:01.720Z,100.00
2023-08-25T23:44:29.528Z,100.00
2023-08-25T23:46:57.403Z,100.00
2023-08-25T23:49:26.448Z,100.00
2023-08-25T23:51:54.417Z,100.00
2023-08-25T23:54:22.097Z,100.00
2023-08-25T23:56:49.820Z,100.00
2023-08-25T23:59:17.607Z,100.00
